sensor_id;sensor_type;location;lat;lon;timestamp;P1;durP1;ratioP1;P2;durP2;ratioP2
70322;SDS011;57735;56.264;43.898;2023-09-12T00:02:13;30.05;;;11.65;;
70322;SDS011;57735;56.264;43.898;2023-09-12T00:04:44;25.10;;;10.95;;
70322;SDS011;57735;56.264;43.898;2023-09-12T00:07:14;30.00;;;12.13;;
70322;SDS011;57735;56.264;43.898;2023-09-12T00:09:45;34.30;;;13.70;;
70322;SDS011;57735;56.264;43.898;2023-09-12T00:12:16;46.88;;;15.80;;
70322;SDS011;57735;56.264;43.898;2023-09-12T00:14:52;38.00;;;14.57;;
70322;SDS011;57735;56.264;43.898;2023-09-12T00:17:23;40.58;;;15.48;;
70322;SDS011;57735;56.264;43.898;2023-09-12T00:19:57;48.35;;;16.80;;
70322;SDS011;57735;56.264;43.898;2023-09-12T00:22:27;36.80;;;15.43;;
70322;SDS011;57735;56.264;43.898;2023-09-12T00:24:58;40.15;;;15.98;;
70322;SDS011;57735;56.264;43.898;2023-09-12T00:27:29;39.83;;;15.48;;
70322;SDS011;57735;56.264;43.898;2023-09-12T00:30:00;44.40;;;15.98;;
70322;SDS011;57735;56.264;43.898;2023-09-12T00:32:31;43.53;;;16.17;;
70322;SDS011;57735;56.264;43.898;2023-09-12T00:35:01;50.42;;;17.38;;
70322;SDS011;57735;56.264;43.898;2023-09-12T00:37:34;48.38;;;18.85;;
70322;SDS011;57735;56.264;43.898;2023-09-12T00:40:05;53.03;;;19.17;;
70322;SDS011;57735;56.264;43.898;2023-09-12T00:42:36;48.60;;;19.38;;
70322;SDS011;57735;56.264;43.898;2023-09-12T00:45:07;47.63;;;15.75;;
70322;SDS011;57735;56.264;43.898;2023-09-12T00:47:38;41.88;;;16.00;;
70322;SDS011;57735;56.264;43.898;2023-09-12T00:50:09;41.88;;;16.83;;
70322;SDS011;57735;56.264;43.898;2023-09-12T00:52:41;40.92;;;17.65;;
70322;SDS011;57735;56.264;43.898;2023-09-12T00:55:16;44.25;;;18.25;;
70322;SDS011;57735;56.264;43.898;2023-09-12T00:57:47;41.42;;;18.40;;
70322;SDS011;57735;56.264;43.898;2023-09-12T01:00:19;49.55;;;19.33;;
70322;SDS011;57735;56.264;43.898;2023-09-12T01:02:50;47.60;;;19.70;;
70322;SDS011;57735;56.264;43.898;2023-09-12T01:05:23;42.63;;;18.80;;
70322;SDS011;57735;56.264;43.898;2023-09-12T01:07:54;55.40;;;19.48;;
70322;SDS011;57735;56.264;43.898;2023-09-12T01:10:26;50.13;;;18.27;;
70322;SDS011;57735;56.264;43.898;2023-09-12T01:12:57;41.60;;;18.10;;
70322;SDS011;57735;56.264;43.898;2023-09-12T01:15:36;46.30;;;18.23;;
70322;SDS011;57735;56.264;43.898;2023-09-12T01:18:11;57.15;;;18.75;;
70322;SDS011;57735;56.264;43.898;2023-09-12T01:26:29;46.55;;;15.68;;
70322;SDS011;57735;56.264;43.898;2023-09-12T01:29:21;51.78;;;16.08;;
70322;SDS011;57735;56.264;43.898;2023-09-12T01:31:53;40.90;;;16.23;;
70322;SDS011;57735;56.264;43.898;2023-09-12T01:34:24;46.50;;;16.60;;
70322;SDS011;57735;56.264;43.898;2023-09-12T01:36:58;41.50;;;15.25;;
70322;SDS011;57735;56.264;43.898;2023-09-12T01:39:29;44.38;;;16.27;;
70322;SDS011;57735;56.264;43.898;2023-09-12T01:42:00;39.80;;;16.58;;
70322;SDS011;57735;56.264;43.898;2023-09-12T01:44:32;44.35;;;16.30;;
70322;SDS011;57735;56.264;43.898;2023-09-12T01:47:07;40.42;;;14.55;;
70322;SDS011;57735;56.264;43.898;2023-09-12T01:49:39;38.97;;;15.15;;
70322;SDS011;57735;56.264;43.898;2023-09-12T01:52:13;46.83;;;15.10;;
70322;SDS011;57735;56.264;43.898;2023-09-12T01:54:47;46.00;;;15.10;;
70322;SDS011;57735;56.264;43.898;2023-09-12T01:57:19;37.53;;;14.32;;
70322;SDS011;57735;56.264;43.898;2023-09-12T01:59:53;38.10;;;14.43;;
70322;SDS011;57735;56.264;43.898;2023-09-12T02:02:26;38.60;;;13.80;;
70322;SDS011;57735;56.264;43.898;2023-09-12T02:05:10;35.17;;;14.40;;
70322;SDS011;57735;56.264;43.898;2023-09-12T02:07:45;38.88;;;13.80;;
70322;SDS011;57735;56.264;43.898;2023-09-12T02:10:16;36.88;;;13.45;;
70322;SDS011;57735;56.264;43.898;2023-09-12T02:12:49;37.50;;;13.45;;
70322;SDS011;57735;56.264;43.898;2023-09-12T02:15:22;33.50;;;13.68;;
70322;SDS011;57735;56.264;43.898;2023-09-12T02:17:53;40.25;;;14.77;;
70322;SDS011;57735;56.264;43.898;2023-09-12T02:20:24;37.15;;;13.93;;
70322;SDS011;57735;56.264;43.898;2023-09-12T02:22:57;35.65;;;12.65;;
70322;SDS011;57735;56.264;43.898;2023-09-12T02:25:28;32.17;;;13.48;;
70322;SDS011;57735;56.264;43.898;2023-09-12T02:27:59;29.42;;;13.50;;
70322;SDS011;57735;56.264;43.898;2023-09-12T02:30:30;35.35;;;14.40;;
70322;SDS011;57735;56.264;43.898;2023-09-12T02:33:00;31.92;;;14.02;;
70322;SDS011;57735;56.264;43.898;2023-09-12T02:35:31;36.35;;;16.58;;
70322;SDS011;57735;56.264;43.898;2023-09-12T02:38:02;33.83;;;15.48;;
70322;SDS011;57735;56.264;43.898;2023-09-12T02:40:33;38.92;;;16.50;;
70322;SDS011;57735;56.264;43.898;2023-09-12T02:43:04;51.25;;;16.35;;
70322;SDS011;57735;56.264;43.898;2023-09-12T02:45:35;42.53;;;15.15;;
70322;SDS011;57735;56.264;43.898;2023-09-12T02:48:06;39.75;;;14.98;;
70322;SDS011;57735;56.264;43.898;2023-09-12T02:50:36;40.50;;;14.50;;
70322;SDS011;57735;56.264;43.898;2023-09-12T02:53:07;32.05;;;14.80;;
70322;SDS011;57735;56.264;43.898;2023-09-12T02:55:41;39.15;;;15.40;;
70322;SDS011;57735;56.264;43.898;2023-09-12T02:58:12;46.30;;;14.50;;
70322;SDS011;57735;56.264;43.898;2023-09-12T03:00:43;44.78;;;16.02;;
70322;SDS011;57735;56.264;43.898;2023-09-12T03:03:14;47.35;;;16.27;;
70322;SDS011;57735;56.264;43.898;2023-09-12T03:05:44;44.58;;;14.15;;
70322;SDS011;57735;56.264;43.898;2023-09-12T03:08:15;56.67;;;17.85;;
70322;SDS011;57735;56.264;43.898;2023-09-12T03:10:52;48.78;;;16.48;;
70322;SDS011;57735;56.264;43.898;2023-09-12T03:13:25;45.05;;;16.90;;
70322;SDS011;57735;56.264;43.898;2023-09-12T03:15:56;72.97;;;25.95;;
70322;SDS011;57735;56.264;43.898;2023-09-12T03:18:27;40.90;;;16.52;;
70322;SDS011;57735;56.264;43.898;2023-09-12T03:20:57;62.92;;;22.25;;
70322;SDS011;57735;56.264;43.898;2023-09-12T03:23:28;57.85;;;20.52;;
70322;SDS011;57735;56.264;43.898;2023-09-12T03:26:02;58.92;;;21.42;;
70322;SDS011;57735;56.264;43.898;2023-09-12T03:28:34;59.47;;;20.70;;
70322;SDS011;57735;56.264;43.898;2023-09-12T03:31:08;66.05;;;20.67;;
70322;SDS011;57735;56.264;43.898;2023-09-12T03:33:46;51.80;;;20.15;;
70322;SDS011;57735;56.264;43.898;2023-09-12T03:36:20;59.60;;;20.45;;
70322;SDS011;57735;56.264;43.898;2023-09-12T03:38:50;42.80;;;20.23;;
70322;SDS011;57735;56.264;43.898;2023-09-12T03:41:21;55.78;;;22.45;;
70322;SDS011;57735;56.264;43.898;2023-09-12T03:43:56;51.55;;;20.13;;
70322;SDS011;57735;56.264;43.898;2023-09-12T03:46:26;50.72;;;20.00;;
70322;SDS011;57735;56.264;43.898;2023-09-12T03:48:57;60.95;;;21.25;;
70322;SDS011;57735;56.264;43.898;2023-09-12T03:51:28;59.45;;;21.35;;
70322;SDS011;57735;56.264;43.898;2023-09-12T03:53:59;58.28;;;21.20;;
70322;SDS011;57735;56.264;43.898;2023-09-12T03:56:30;55.65;;;20.90;;
70322;SDS011;57735;56.264;43.898;2023-09-12T03:59:01;53.65;;;20.15;;
70322;SDS011;57735;56.264;43.898;2023-09-12T04:01:32;47.30;;;18.80;;
70322;SDS011;57735;56.264;43.898;2023-09-12T04:04:03;52.92;;;19.25;;
70322;SDS011;57735;56.264;43.898;2023-09-12T04:06:34;65.00;;;21.23;;
70322;SDS011;57735;56.264;43.898;2023-09-12T04:09:05;55.83;;;19.27;;
70322;SDS011;57735;56.264;43.898;2023-09-12T04:11:36;45.45;;;19.63;;
70322;SDS011;57735;56.264;43.898;2023-09-12T04:14:07;37.45;;;17.15;;
70322;SDS011;57735;56.264;43.898;2023-09-12T04:16:38;40.78;;;17.92;;
70322;SDS011;57735;56.264;43.898;2023-09-12T04:19:09;47.92;;;17.40;;
70322;SDS011;57735;56.264;43.898;2023-09-12T04:21:39;47.83;;;19.55;;
70322;SDS011;57735;56.264;43.898;2023-09-12T04:24:10;43.70;;;18.23;;
70322;SDS011;57735;56.264;43.898;2023-09-12T04:26:41;42.00;;;18.45;;
70322;SDS011;57735;56.264;43.898;2023-09-12T04:29:14;40.65;;;17.90;;
70322;SDS011;57735;56.264;43.898;2023-09-12T04:31:45;42.72;;;17.48;;
70322;SDS011;57735;56.264;43.898;2023-09-12T04:34:15;38.15;;;16.27;;
70322;SDS011;57735;56.264;43.898;2023-09-12T04:36:47;33.55;;;14.95;;
70322;SDS011;57735;56.264;43.898;2023-09-12T04:39:17;25.02;;;13.20;;
70322;SDS011;57735;56.264;43.898;2023-09-12T04:41:48;33.72;;;13.20;;
70322;SDS011;57735;56.264;43.898;2023-09-12T04:44:19;28.02;;;13.43;;
70322;SDS011;57735;56.264;43.898;2023-09-12T04:46:50;28.98;;;12.77;;
70322;SDS011;57735;56.264;43.898;2023-09-12T04:49:21;30.70;;;12.15;;
70322;SDS011;57735;56.264;43.898;2023-09-12T04:51:52;26.38;;;12.65;;
70322;SDS011;57735;56.264;43.898;2023-09-12T04:54:23;26.55;;;12.48;;
70322;SDS011;57735;56.264;43.898;2023-09-12T04:56:53;23.23;;;13.55;;
70322;SDS011;57735;56.264;43.898;2023-09-12T04:59:24;29.13;;;13.40;;
70322;SDS011;57735;56.264;43.898;2023-09-12T05:01:55;28.25;;;12.57;;
70322;SDS011;57735;56.264;43.898;2023-09-12T05:04:26;25.98;;;12.70;;
70322;SDS011;57735;56.264;43.898;2023-09-12T05:06:57;26.23;;;13.10;;
70322;SDS011;57735;56.264;43.898;2023-09-12T05:09:27;22.92;;;12.68;;
70322;SDS011;57735;56.264;43.898;2023-09-12T05:11:58;31.23;;;14.32;;
70322;SDS011;57735;56.264;43.898;2023-09-12T05:14:29;25.88;;;14.60;;
70322;SDS011;57735;56.264;43.898;2023-09-12T05:17:00;23.95;;;12.77;;
70322;SDS011;57735;56.264;43.898;2023-09-12T05:19:32;32.70;;;15.40;;
70322;SDS011;57735;56.264;43.898;2023-09-12T05:22:03;33.35;;;14.35;;
70322;SDS011;57735;56.264;43.898;2023-09-12T05:24:34;26.40;;;13.38;;
70322;SDS011;57735;56.264;43.898;2023-09-12T05:27:04;26.73;;;13.18;;
70322;SDS011;57735;56.264;43.898;2023-09-12T05:29:36;23.27;;;11.65;;
70322;SDS011;57735;56.264;43.898;2023-09-12T05:32:06;24.33;;;11.98;;
70322;SDS011;57735;56.264;43.898;2023-09-12T05:34:37;29.23;;;13.68;;
70322;SDS011;57735;56.264;43.898;2023-09-12T05:37:08;22.60;;;12.35;;
70322;SDS011;57735;56.264;43.898;2023-09-12T05:39:39;24.00;;;12.18;;
70322;SDS011;57735;56.264;43.898;2023-09-12T05:42:09;25.27;;;11.93;;
70322;SDS011;57735;56.264;43.898;2023-09-12T05:44:44;25.98;;;11.90;;
70322;SDS011;57735;56.264;43.898;2023-09-12T05:47:16;27.48;;;12.88;;
70322;SDS011;57735;56.264;43.898;2023-09-12T05:49:50;27.83;;;12.75;;
70322;SDS011;57735;56.264;43.898;2023-09-12T05:52:21;23.55;;;12.75;;
70322;SDS011;57735;56.264;43.898;2023-09-12T05:54:51;24.05;;;12.88;;
70322;SDS011;57735;56.264;43.898;2023-09-12T05:57:22;24.15;;;13.90;;
70322;SDS011;57735;56.264;43.898;2023-09-12T05:59:54;33.33;;;13.98;;
70322;SDS011;57735;56.264;43.898;2023-09-12T06:02:25;28.15;;;13.55;;
70322;SDS011;57735;56.264;43.898;2023-09-12T06:04:58;27.08;;;14.00;;
70322;SDS011;57735;56.264;43.898;2023-09-12T06:07:29;23.98;;;12.95;;
70322;SDS011;57735;56.264;43.898;2023-09-12T06:10:01;35.08;;;14.10;;
70322;SDS011;57735;56.264;43.898;2023-09-12T06:12:35;32.65;;;14.52;;
70322;SDS011;57735;56.264;43.898;2023-09-12T06:15:07;30.98;;;14.57;;
70322;SDS011;57735;56.264;43.898;2023-09-12T06:17:39;24.50;;;14.35;;
70322;SDS011;57735;56.264;43.898;2023-09-12T06:20:10;31.67;;;14.13;;
70322;SDS011;57735;56.264;43.898;2023-09-12T06:22:41;32.03;;;15.60;;
70322;SDS011;57735;56.264;43.898;2023-09-12T06:25:13;25.05;;;14.82;;
70322;SDS011;57735;56.264;43.898;2023-09-12T06:27:44;30.17;;;14.32;;
70322;SDS011;57735;56.264;43.898;2023-09-12T06:30:15;27.15;;;15.55;;
70322;SDS011;57735;56.264;43.898;2023-09-12T06:32:48;25.17;;;15.40;;
70322;SDS011;57735;56.264;43.898;2023-09-12T06:35:19;36.22;;;15.77;;
70322;SDS011;57735;56.264;43.898;2023-09-12T06:37:50;41.55;;;18.48;;
70322;SDS011;57735;56.264;43.898;2023-09-12T06:40:39;37.23;;;18.10;;
70322;SDS011;57735;56.264;43.898;2023-09-12T06:43:12;34.92;;;17.15;;
70322;SDS011;57735;56.264;43.898;2023-09-12T06:45:45;33.00;;;17.92;;
70322;SDS011;57735;56.264;43.898;2023-09-12T06:48:16;34.83;;;18.42;;
70322;SDS011;57735;56.264;43.898;2023-09-12T06:50:47;34.67;;;16.67;;
70322;SDS011;57735;56.264;43.898;2023-09-12T06:53:18;44.67;;;17.58;;
70322;SDS011;57735;56.264;43.898;2023-09-12T06:55:49;41.28;;;16.85;;
70322;SDS011;57735;56.264;43.898;2023-09-12T06:58:19;38.17;;;16.88;;
70322;SDS011;57735;56.264;43.898;2023-09-12T07:00:50;30.83;;;15.88;;
70322;SDS011;57735;56.264;43.898;2023-09-12T07:03:21;22.27;;;12.70;;
70322;SDS011;57735;56.264;43.898;2023-09-12T07:09:02;33.15;;;13.35;;
70322;SDS011;57735;56.264;43.898;2023-09-12T07:11:35;31.23;;;12.90;;
70322;SDS011;57735;56.264;43.898;2023-09-12T07:14:06;28.67;;;13.20;;
70322;SDS011;57735;56.264;43.898;2023-09-12T07:16:37;30.02;;;13.45;;
70322;SDS011;57735;56.264;43.898;2023-09-12T07:19:08;32.08;;;14.05;;
70322;SDS011;57735;56.264;43.898;2023-09-12T07:21:40;31.73;;;14.00;;
70322;SDS011;57735;56.264;43.898;2023-09-12T07:24:11;31.40;;;13.77;;
70322;SDS011;57735;56.264;43.898;2023-09-12T07:26:46;28.80;;;13.73;;
70322;SDS011;57735;56.264;43.898;2023-09-12T07:29:19;24.98;;;11.90;;
70322;SDS011;57735;56.264;43.898;2023-09-12T07:31:53;20.77;;;9.75;;
70322;SDS011;57735;56.264;43.898;2023-09-12T07:34:24;22.25;;;9.80;;
70322;SDS011;57735;56.264;43.898;2023-09-12T07:36:55;15.88;;;8.63;;
70322;SDS011;57735;56.264;43.898;2023-09-12T07:39:28;20.60;;;9.50;;
70322;SDS011;57735;56.264;43.898;2023-09-12T07:41:59;15.18;;;8.52;;
70322;SDS011;57735;56.264;43.898;2023-09-12T07:44:33;15.13;;;9.07;;
70322;SDS011;57735;56.264;43.898;2023-09-12T07:47:04;25.83;;;10.52;;
70322;SDS011;57735;56.264;43.898;2023-09-12T07:49:35;19.92;;;9.13;;
70322;SDS011;57735;56.264;43.898;2023-09-12T07:52:06;19.90;;;9.85;;
70322;SDS011;57735;56.264;43.898;2023-09-12T07:54:40;18.25;;;7.85;;
70322;SDS011;57735;56.264;43.898;2023-09-12T07:57:10;10.48;;;7.47;;
70322;SDS011;57735;56.264;43.898;2023-09-12T07:59:41;13.38;;;6.95;;
70322;SDS011;57735;56.264;43.898;2023-09-12T08:02:12;16.10;;;6.80;;
70322;SDS011;57735;56.264;43.898;2023-09-12T08:04:43;13.93;;;6.13;;
70322;SDS011;57735;56.264;43.898;2023-09-12T08:07:14;11.85;;;5.30;;
70322;SDS011;57735;56.264;43.898;2023-09-12T08:09:51;9.80;;;5.25;;
70322;SDS011;57735;56.264;43.898;2023-09-12T08:12:23;17.33;;;5.15;;
70322;SDS011;57735;56.264;43.898;2023-09-12T08:14:58;14.43;;;5.25;;
70322;SDS011;57735;56.264;43.898;2023-09-12T08:17:30;7.35;;;4.35;;
70322;SDS011;57735;56.264;43.898;2023-09-12T08:20:01;8.15;;;5.00;;
70322;SDS011;57735;56.264;43.898;2023-09-12T08:22:37;11.68;;;5.38;;
70322;SDS011;57735;56.264;43.898;2023-09-12T08:25:09;7.93;;;4.47;;
70322;SDS011;57735;56.264;43.898;2023-09-12T08:27:40;9.93;;;5.35;;
70322;SDS011;57735;56.264;43.898;2023-09-12T08:30:13;9.60;;;5.25;;
70322;SDS011;57735;56.264;43.898;2023-09-12T08:32:44;10.57;;;5.30;;
70322;SDS011;57735;56.264;43.898;2023-09-12T08:35:15;8.00;;;5.32;;
70322;SDS011;57735;56.264;43.898;2023-09-12T08:37:49;10.70;;;5.10;;
70322;SDS011;57735;56.264;43.898;2023-09-12T08:40:22;8.05;;;4.38;;
70322;SDS011;57735;56.264;43.898;2023-09-12T08:42:53;8.77;;;4.55;;
70322;SDS011;57735;56.264;43.898;2023-09-12T08:45:25;10.00;;;4.38;;
70322;SDS011;57735;56.264;43.898;2023-09-12T08:47:59;10.00;;;5.03;;
70322;SDS011;57735;56.264;43.898;2023-09-12T08:50:34;7.55;;;4.38;;
70322;SDS011;57735;56.264;43.898;2023-09-12T08:53:05;8.45;;;4.05;;
70322;SDS011;57735;56.264;43.898;2023-09-12T08:55:36;12.38;;;4.07;;
70322;SDS011;57735;56.264;43.898;2023-09-12T08:58:07;11.38;;;4.82;;
70322;SDS011;57735;56.264;43.898;2023-09-12T09:00:38;8.27;;;4.60;;
70322;SDS011;57735;56.264;43.898;2023-09-12T09:03:09;10.00;;;4.15;;
70322;SDS011;57735;56.264;43.898;2023-09-12T09:05:40;7.18;;;3.58;;
70322;SDS011;57735;56.264;43.898;2023-09-12T09:08:14;8.13;;;4.10;;
70322;SDS011;57735;56.264;43.898;2023-09-12T09:11:04;7.13;;;3.60;;
70322;SDS011;57735;56.264;43.898;2023-09-12T09:13:37;6.10;;;3.22;;
70322;SDS011;57735;56.264;43.898;2023-09-12T09:16:17;10.90;;;3.65;;
70322;SDS011;57735;56.264;43.898;2023-09-12T09:19:01;9.95;;;3.78;;
70322;SDS011;57735;56.264;43.898;2023-09-12T09:21:34;5.63;;;3.28;;
70322;SDS011;57735;56.264;43.898;2023-09-12T09:24:06;5.03;;;3.00;;
70322;SDS011;57735;56.264;43.898;2023-09-12T09:26:45;4.22;;;3.30;;
70322;SDS011;57735;56.264;43.898;2023-09-12T09:29:17;7.57;;;2.95;;
70322;SDS011;57735;56.264;43.898;2023-09-12T09:31:50;9.75;;;3.75;;
70322;SDS011;57735;56.264;43.898;2023-09-12T09:34:22;6.78;;;3.45;;
70322;SDS011;57735;56.264;43.898;2023-09-12T09:36:55;5.68;;;3.20;;
70322;SDS011;57735;56.264;43.898;2023-09-12T09:39:28;6.32;;;3.47;;
70322;SDS011;57735;56.264;43.898;2023-09-12T09:42:04;7.65;;;3.60;;
70322;SDS011;57735;56.264;43.898;2023-09-12T09:44:44;6.72;;;3.42;;
70322;SDS011;57735;56.264;43.898;2023-09-12T09:47:15;4.63;;;3.30;;
70322;SDS011;57735;56.264;43.898;2023-09-12T09:49:48;7.13;;;3.20;;
70322;SDS011;57735;56.264;43.898;2023-09-12T09:52:25;5.55;;;3.30;;
70322;SDS011;57735;56.264;43.898;2023-09-12T09:54:59;10.27;;;3.70;;
70322;SDS011;57735;56.264;43.898;2023-09-12T09:57:36;7.50;;;3.63;;
70322;SDS011;57735;56.264;43.898;2023-09-12T10:00:08;8.25;;;3.88;;
70322;SDS011;57735;56.264;43.898;2023-09-12T10:02:45;10.05;;;3.47;;
70322;SDS011;57735;56.264;43.898;2023-09-12T10:05:20;6.35;;;3.50;;
70322;SDS011;57735;56.264;43.898;2023-09-12T10:07:52;6.10;;;3.88;;
70322;SDS011;57735;56.264;43.898;2023-09-12T10:10:26;7.03;;;3.63;;
70322;SDS011;57735;56.264;43.898;2023-09-12T10:12:59;9.25;;;3.58;;
70322;SDS011;57735;56.264;43.898;2023-09-12T10:15:33;6.57;;;3.58;;
70322;SDS011;57735;56.264;43.898;2023-09-12T10:18:08;3.90;;;3.10;;
70322;SDS011;57735;56.264;43.898;2023-09-12T10:20:52;13.57;;;4.57;;
70322;SDS011;57735;56.264;43.898;2023-09-12T10:23:30;12.63;;;4.95;;
70322;SDS011;57735;56.264;43.898;2023-09-12T10:26:12;8.65;;;4.60;;
70322;SDS011;57735;56.264;43.898;2023-09-12T10:31:17;4.10;;;3.20;;
70322;SDS011;57735;56.264;43.898;2023-09-12T10:33:48;5.70;;;3.28;;
70322;SDS011;57735;56.264;43.898;2023-09-12T10:36:20;6.32;;;3.63;;
70322;SDS011;57735;56.264;43.898;2023-09-12T10:38:55;5.40;;;3.13;;
70322;SDS011;57735;56.264;43.898;2023-09-12T10:41:29;4.25;;;3.30;;
70322;SDS011;57735;56.264;43.898;2023-09-12T10:44:01;6.32;;;3.53;;
70322;SDS011;57735;56.264;43.898;2023-09-12T10:46:43;4.80;;;3.22;;
70322;SDS011;57735;56.264;43.898;2023-09-12T10:49:15;9.43;;;3.47;;
70322;SDS011;57735;56.264;43.898;2023-09-12T10:51:47;5.40;;;3.58;;
70322;SDS011;57735;56.264;43.898;2023-09-12T10:54:25;7.35;;;3.63;;
70322;SDS011;57735;56.264;43.898;2023-09-12T10:57:13;4.47;;;3.53;;
70322;SDS011;57735;56.264;43.898;2023-09-12T11:02:40;5.45;;;3.70;;
70322;SDS011;57735;56.264;43.898;2023-09-12T11:05:54;4.00;;;3.05;;
70322;SDS011;57735;56.264;43.898;2023-09-12T11:08:07;6.93;;;3.20;;
70322;SDS011;57735;56.264;43.898;2023-09-12T11:10:38;5.53;;;3.15;;
70322;SDS011;57735;56.264;43.898;2023-09-12T11:13:17;4.68;;;3.72;;
70322;SDS011;57735;56.264;43.898;2023-09-12T11:16:11;5.05;;;3.30;;
70322;SDS011;57735;56.264;43.898;2023-09-12T11:21:50;6.97;;;3.45;;
70322;SDS011;57735;56.264;43.898;2023-09-12T11:24:24;7.40;;;3.10;;
70322;SDS011;57735;56.264;43.898;2023-09-12T11:27:16;4.75;;;3.47;;
70322;SDS011;57735;56.264;43.898;2023-09-12T11:29:47;4.35;;;3.20;;
70322;SDS011;57735;56.264;43.898;2023-09-12T11:32:31;8.25;;;3.33;;
70322;SDS011;57735;56.264;43.898;2023-09-12T11:35:07;6.47;;;4.00;;
70322;SDS011;57735;56.264;43.898;2023-09-12T11:37:38;5.53;;;3.42;;
70322;SDS011;57735;56.264;43.898;2023-09-12T11:42:43;4.30;;;3.30;;
70322;SDS011;57735;56.264;43.898;2023-09-12T11:45:22;7.80;;;3.38;;
70322;SDS011;57735;56.264;43.898;2023-09-12T11:47:53;7.03;;;3.20;;
70322;SDS011;57735;56.264;43.898;2023-09-12T11:53:10;3.50;;;2.90;;
70322;SDS011;57735;56.264;43.898;2023-09-12T11:55:43;6.57;;;3.10;;
70322;SDS011;57735;56.264;43.898;2023-09-12T11:58:17;5.93;;;3.22;;
70322;SDS011;57735;56.264;43.898;2023-09-12T12:00:50;9.10;;;3.30;;
70322;SDS011;57735;56.264;43.898;2023-09-12T12:03:23;3.45;;;2.63;;
70322;SDS011;57735;56.264;43.898;2023-09-12T12:05:56;6.55;;;2.88;;
70322;SDS011;57735;56.264;43.898;2023-09-12T12:08:27;7.13;;;2.95;;
70322;SDS011;57735;56.264;43.898;2023-09-12T12:11:01;6.47;;;3.22;;
70322;SDS011;57735;56.264;43.898;2023-09-12T12:13:32;6.05;;;3.05;;
70322;SDS011;57735;56.264;43.898;2023-09-12T12:16:16;2.90;;;2.60;;
70322;SDS011;57735;56.264;43.898;2023-09-12T12:18:47;4.68;;;2.60;;
70322;SDS011;57735;56.264;43.898;2023-09-12T12:21:18;6.63;;;2.80;;
70322;SDS011;57735;56.264;43.898;2023-09-12T12:24:00;3.50;;;3.05;;
70322;SDS011;57735;56.264;43.898;2023-09-12T12:26:35;3.73;;;2.87;;
70322;SDS011;57735;56.264;43.898;2023-09-12T12:29:08;3.80;;;3.00;;
70322;SDS011;57735;56.264;43.898;2023-09-12T12:31:42;5.28;;;2.80;;
70322;SDS011;57735;56.264;43.898;2023-09-12T12:34:16;5.43;;;2.92;;
70322;SDS011;57735;56.264;43.898;2023-09-12T12:36:53;6.05;;;3.35;;
70322;SDS011;57735;56.264;43.898;2023-09-12T12:41:57;4.50;;;2.90;;
70322;SDS011;57735;56.264;43.898;2023-09-12T12:44:34;6.72;;;3.00;;
70322;SDS011;57735;56.264;43.898;2023-09-12T12:47:11;4.93;;;2.95;;
70322;SDS011;57735;56.264;43.898;2023-09-12T12:49:45;5.43;;;3.33;;
70322;SDS011;57735;56.264;43.898;2023-09-12T12:52:22;4.57;;;3.30;;
70322;SDS011;57735;56.264;43.898;2023-09-12T12:55:02;7.05;;;3.08;;
70322;SDS011;57735;56.264;43.898;2023-09-12T12:57:41;5.18;;;2.92;;
70322;SDS011;57735;56.264;43.898;2023-09-12T13:00:14;5.20;;;3.00;;
70322;SDS011;57735;56.264;43.898;2023-09-12T13:02:46;4.97;;;2.85;;
70322;SDS011;57735;56.264;43.898;2023-09-12T13:05:24;5.43;;;2.55;;
70322;SDS011;57735;56.264;43.898;2023-09-12T13:07:59;6.47;;;3.17;;
70322;SDS011;57735;56.264;43.898;2023-09-12T13:10:30;7.72;;;3.17;;
70322;SDS011;57735;56.264;43.898;2023-09-12T13:13:01;7.80;;;3.05;;
70322;SDS011;57735;56.264;43.898;2023-09-12T13:15:32;4.35;;;2.95;;
70322;SDS011;57735;56.264;43.898;2023-09-12T13:18:02;4.78;;;3.70;;
70322;SDS011;57735;56.264;43.898;2023-09-12T13:20:34;3.78;;;3.05;;
70322;SDS011;57735;56.264;43.898;2023-09-12T13:23:05;7.82;;;3.30;;
70322;SDS011;57735;56.264;43.898;2023-09-12T13:25:36;10.20;;;3.28;;
70322;SDS011;57735;56.264;43.898;2023-09-12T13:28:11;5.93;;;3.45;;
70322;SDS011;57735;56.264;43.898;2023-09-12T13:30:42;5.53;;;3.45;;
70322;SDS011;57735;56.264;43.898;2023-09-12T13:33:13;5.38;;;3.17;;
70322;SDS011;57735;56.264;43.898;2023-09-12T13:35:50;10.10;;;3.67;;
70322;SDS011;57735;56.264;43.898;2023-09-12T13:38:21;7.53;;;2.97;;
70322;SDS011;57735;56.264;43.898;2023-09-12T13:40:55;6.38;;;3.00;;
70322;SDS011;57735;56.264;43.898;2023-09-12T13:43:28;8.25;;;3.10;;
70322;SDS011;57735;56.264;43.898;2023-09-12T13:46:00;5.07;;;3.00;;
70322;SDS011;57735;56.264;43.898;2023-09-12T13:48:31;5.22;;;2.75;;
70322;SDS011;57735;56.264;43.898;2023-09-12T13:51:02;4.45;;;2.67;;
70322;SDS011;57735;56.264;43.898;2023-09-12T13:53:33;14.00;;;3.17;;
70322;SDS011;57735;56.264;43.898;2023-09-12T13:56:06;8.95;;;2.53;;
70322;SDS011;57735;56.264;43.898;2023-09-12T13:58:40;6.63;;;2.47;;
70322;SDS011;57735;56.264;43.898;2023-09-12T14:01:11;3.40;;;2.42;;
70322;SDS011;57735;56.264;43.898;2023-09-12T14:03:42;7.07;;;2.90;;
70322;SDS011;57735;56.264;43.898;2023-09-12T14:06:15;3.20;;;2.70;;
70322;SDS011;57735;56.264;43.898;2023-09-12T14:08:46;9.70;;;3.38;;
70322;SDS011;57735;56.264;43.898;2023-09-12T14:11:17;6.65;;;3.30;;
70322;SDS011;57735;56.264;43.898;2023-09-12T14:13:50;8.15;;;3.00;;
70322;SDS011;57735;56.264;43.898;2023-09-12T14:16:21;3.33;;;2.58;;
70322;SDS011;57735;56.264;43.898;2023-09-12T14:18:52;8.40;;;3.00;;
70322;SDS011;57735;56.264;43.898;2023-09-12T14:21:25;9.55;;;3.25;;
70322;SDS011;57735;56.264;43.898;2023-09-12T14:23:56;4.13;;;2.88;;
70322;SDS011;57735;56.264;43.898;2023-09-12T14:26:27;9.05;;;4.07;;
70322;SDS011;57735;56.264;43.898;2023-09-12T14:29:01;10.05;;;3.75;;
70322;SDS011;57735;56.264;43.898;2023-09-12T14:31:31;11.52;;;3.40;;
70322;SDS011;57735;56.264;43.898;2023-09-12T14:34:02;10.75;;;3.40;;
70322;SDS011;57735;56.264;43.898;2023-09-12T14:36:42;12.63;;;3.53;;
70322;SDS011;57735;56.264;43.898;2023-09-12T14:39:16;7.10;;;3.47;;
70322;SDS011;57735;56.264;43.898;2023-09-12T14:41:47;8.98;;;4.15;;
70322;SDS011;57735;56.264;43.898;2023-09-12T14:44:22;10.25;;;3.50;;
70322;SDS011;57735;56.264;43.898;2023-09-12T14:46:54;6.35;;;3.38;;
70322;SDS011;57735;56.264;43.898;2023-09-12T14:49:25;7.20;;;3.15;;
70322;SDS011;57735;56.264;43.898;2023-09-12T14:51:59;12.07;;;2.90;;
70322;SDS011;57735;56.264;43.898;2023-09-12T14:54:39;5.00;;;3.15;;
70322;SDS011;57735;56.264;43.898;2023-09-12T14:57:09;4.60;;;3.05;;
70322;SDS011;57735;56.264;43.898;2023-09-12T14:59:40;10.50;;;3.35;;
70322;SDS011;57735;56.264;43.898;2023-09-12T15:02:14;12.43;;;3.60;;
70322;SDS011;57735;56.264;43.898;2023-09-12T15:04:44;8.90;;;3.55;;
70322;SDS011;57735;56.264;43.898;2023-09-12T15:07:15;9.32;;;3.30;;
70322;SDS011;57735;56.264;43.898;2023-09-12T15:09:46;9.75;;;4.30;;
70322;SDS011;57735;56.264;43.898;2023-09-12T15:12:17;14.40;;;4.10;;
70322;SDS011;57735;56.264;43.898;2023-09-12T15:14:50;9.90;;;3.72;;
70322;SDS011;57735;56.264;43.898;2023-09-12T15:17:23;15.55;;;4.25;;
70322;SDS011;57735;56.264;43.898;2023-09-12T15:19:54;11.50;;;4.18;;